Killeen — WDF3110 — position and weather

sailwx.info

Track history (hours):
 
Tides and Currents Weather Stations Pressure Air Temp Water Temp Dewpoint Dewpoint Depression Visibility Wind Speed Wind Dir Waves Ship Positions

Killeen

Owner: C Ray Inc, San Diego, CA. More information available from US FCC via Universal Licensing System and Coast Guard Vessel Documentation Center.

Last reported at 2017-Sep-18 20:34 UTC. Time now 2017-Sep-19 16:48 UTC.
Position N 32°42' W 117°09'.

Length 18 m; draft 2.5 m.

Type: Towing. MMSI: 367435980.

Date/timePositionNaut miles runAvg speedWind from/ knotsBaromVisibWave heightAir tempDewpointWater temp
2017-Sep-18 20:34N 32°42' W 117°09'0 0.4
2017-Sep-18 20:27N 32°42' W 117°09'0 0.3
2017-Sep-18 19:54N 32°41' W 117°09'2 4.4
2017-Sep-18 19:31N 32°40' W 117°07'0 0.0
2017-Sep-18 19:00N 32°40' W 117°07'0 0.0
2017-Sep-18 18:30N 32°40' W 117°07'0 0.0
2017-Sep-18 18:00N 32°40' W 117°07'0 0.0
2017-Sep-18 17:30N 32°40' W 117°07'0 0.0
2017-Sep-18 17:00N 32°40' W 117°07'0 0.1
2017-Sep-18 16:30N 32°40' W 117°07'0 0.0
2017-Sep-18 16:00N 32°40' W 117°07'0 0.0
2017-Sep-18 15:30N 32°40' W 117°07'0 0.0
2017-Sep-18 15:00N 32°40' W 117°07'2 3.5
2017-Sep-18 14:29N 32°42' W 117°09'0 0.0
2017-Sep-18 13:59N 32°42' W 117°09'0 0.4
2017-Sep-18 13:29N 32°42' W 117°09'0 0.0
2017-Sep-18 13:00N 32°41' W 117°09'  
2017-Sep-15 21:18N 32°42' W 117°09'0 0.1
2017-Sep-15 21:01N 32°42' W 117°09'0 0.0
2017-Sep-15 17:42N 32°42' W 117°09'1 2.5
2017-Sep-15 17:28N 32°42' W 117°09'2 4.5
2017-Sep-15 17:00N 32°43' W 117°11'2 3.3
2017-Sep-15 16:30N 32°43' W 117°13'1 2.9
2017-Sep-15 16:00N 32°43' W 117°12'2 4.2
2017-Sep-15 15:30N 32°42' W 117°10'1 1.8
2017-Sep-15 15:00N 32°42' W 117°09'0 0.1
2017-Sep-15 14:29N 32°42' W 117°09'0 0.0
2017-Sep-13 15:34N 32°42' W 117°09'0 5.1
2017-Sep-13 15:31N 32°42' W 117°09'3 6.3
2017-Sep-13 15:01N 32°43' W 117°12'0 0.4
2017-Sep-13 14:31N 32°43' W 117°12'2 3.4
2017-Sep-13 14:00N 32°42' W 117°10'1 0.1
2017-Sep-12 20:42N 32°42' W 117°09'0 0.0
2017-Sep-12 20:21N 32°42' W 117°09'0 0.0
2017-Sep-12 20:00N 32°42' W 117°09'0 0.0
2017-Sep-11 21:00N 32°42' W 117°09'0 0.1
2017-Sep-11 20:29N 32°42' W 117°09'0 0.0
2017-Sep-11 19:55N 32°42' W 117°09'0 0.0
2017-Sep-11 19:30N 32°42' W 117°09'0 0.1
2017-Sep-11 18:46N 32°42' W 117°09'0 0.0
2017-Sep-11 18:30N 32°42' W 117°09'1 1.1
2017-Sep-11 18:01N 32°42' W 117°09'2 4.1
2017-Sep-11 17:31N 32°43' W 117°11'2 3.2
2017-Sep-11 17:00N 32°43' W 117°13'3 5.6
2017-Sep-11 16:30N 32°42' W 117°10'  
Track history (hours):
 
Tides and Currents Weather Stations Pressure Air Temp Water Temp Dewpoint Dewpoint Depression Visibility Wind Speed Wind Dir Waves Ship Positions

Killeen

Owner: C Ray Inc, San Diego, CA. More information available from US FCC via Universal Licensing System and Coast Guard Vessel Documentation Center.

Last reported at 2017-Sep-18 20:34 UTC. Time now 2017-Sep-19 16:48 UTC.
Position N 32°42' W 117°09'.

Length 18 m; draft 2.5 m.

Type: Towing. MMSI: 367435980.

Date/timePositionNaut miles runAvg speedWind from/ knotsBaromVisibWave heightAir tempDewpointWater temp
2017-Sep-18 20:34N 32°42' W 117°09'0 0.4
2017-Sep-18 20:27N 32°42' W 117°09'0 0.3
2017-Sep-18 19:54N 32°41' W 117°09'2 4.4
2017-Sep-18 19:31N 32°40' W 117°07'0 0.0
2017-Sep-18 19:00N 32°40' W 117°07'0 0.0
2017-Sep-18 18:30N 32°40' W 117°07'0 0.0
2017-Sep-18 18:00N 32°40' W 117°07'0 0.0
2017-Sep-18 17:30N 32°40' W 117°07'0 0.0
2017-Sep-18 17:00N 32°40' W 117°07'0 0.1
2017-Sep-18 16:30N 32°40' W 117°07'0 0.0
2017-Sep-18 16:00N 32°40' W 117°07'0 0.0
2017-Sep-18 15:30N 32°40' W 117°07'0 0.0
2017-Sep-18 15:00N 32°40' W 117°07'2 3.5
2017-Sep-18 14:29N 32°42' W 117°09'0 0.0
2017-Sep-18 13:59N 32°42' W 117°09'0 0.4
2017-Sep-18 13:29N 32°42' W 117°09'0 0.0
2017-Sep-18 13:00N 32°41' W 117°09'  
2017-Sep-15 21:18N 32°42' W 117°09'0 0.1
2017-Sep-15 21:01N 32°42' W 117°09'0 0.0
2017-Sep-15 17:42N 32°42' W 117°09'1 2.5
2017-Sep-15 17:28N 32°42' W 117°09'2 4.5
2017-Sep-15 17:00N 32°43' W 117°11'2 3.3
2017-Sep-15 16:30N 32°43' W 117°13'1 2.9
2017-Sep-15 16:00N 32°43' W 117°12'2 4.2
2017-Sep-15 15:30N 32°42' W 117°10'1 1.8
2017-Sep-15 15:00N 32°42' W 117°09'0 0.1
2017-Sep-15 14:29N 32°42' W 117°09'0 0.0
2017-Sep-13 15:34N 32°42' W 117°09'0 5.1
2017-Sep-13 15:31N 32°42' W 117°09'3 6.3
2017-Sep-13 15:01N 32°43' W 117°12'0 0.4
2017-Sep-13 14:31N 32°43' W 117°12'2 3.4
2017-Sep-13 14:00N 32°42' W 117°10'1 0.1
2017-Sep-12 20:42N 32°42' W 117°09'0 0.0
2017-Sep-12 20:21N 32°42' W 117°09'0 0.0
2017-Sep-12 20:00N 32°42' W 117°09'0 0.0
2017-Sep-11 21:00N 32°42' W 117°09'0 0.1
2017-Sep-11 20:29N 32°42' W 117°09'0 0.0
2017-Sep-11 19:55N 32°42' W 117°09'0 0.0
2017-Sep-11 19:30N 32°42' W 117°09'0 0.1
2017-Sep-11 18:46N 32°42' W 117°09'0 0.0
2017-Sep-11 18:30N 32°42' W 117°09'1 1.1
2017-Sep-11 18:01N 32°42' W 117°09'2 4.1
2017-Sep-11 17:31N 32°43' W 117°11'2 3.2
2017-Sep-11 17:00N 32°43' W 117°13'3 5.6
2017-Sep-11 16:30N 32°42' W 117°10'  

Dump ship's entire track history